Terminal Aerodrome Forecast
Issued by NWS La Crosse, WI

Home | Current Version | Previous Version | Text Only | Print | Product List | Glossary On
Versions: 1 2 3 4 5 6 7 8 9 10 11 12 13 14 15 16 17 18 19 20 21 22 23 24 25 26 27 28 29 30 31 32 33 34 35 36 37 38 39 40 41 42 43 44 45 46 47 48
000
FTUS43 KARX 201139
TAFRST
TAF
KRST 201139Z 2012/2112 00000KT 3/4SM BR SCT002
      TEMPO 2012/2013 1/4SM FG VV002
     FM201330 00000KT 1SM BR SCT002
     FM201400 VRB03KT P6SM SCT200
     FM210200 10006KT P6SM VCSH BKN150
     FM210600 13006KT P6SM -SHRA VCTS BKN040CB
     FM211000 14007KT 4SM -TSRA BKN035CB=

USA.gov is the U.S. government's official web portal to all federal, state and local government web resources and services.